This is the latest recevied weather packets stored in our database for station/object OE7BJT-13. If no packets are shown the sender has not sent any weather packets the latest 10 day(s).
| Time | Temp. | Humidity | Pressure | Rain* | Wind** | Luminosity | Snow |
|---|---|---|---|---|---|---|---|
| 1788284383 | 20° C | 99% | 679 hPa | - | - | - | - |
| 1788283777 | 20.56° C | 10% | - | - | - | - | - |
| 1788283171 | 20.56° C | 10% | - | - | - | - | - |
| 1788282566 | 20.56° C | 96% | 679 hPa | - | - | - | - |
| 1788281960 | 22.22° C | 71% | 681 hPa | - | - | - | - |
| 1788281354 | 21.67° C | 80% | 680 hPa | - | - | - | - |
| 1788280143 | 22.22° C | 62% | 681 hPa | - | - | - | - |
| 1788279538 | 22.78° C | 52% | 681 hPa | - | - | - | - |
| 1788277721 | 23.33° C | 53% | 682 hPa | - | - | - | - |
| 1788277115 | 23.33° C | 54% | 682 hPa | - | - | - | - |
| 1788276510 | 23.33° C | 50% | 682 hPa | - | - | - | - |
| 1788275904 | 23.33° C | 51% | 682 hPa | - | - | - | - |
| 1788275299 | 23.89° C | 48% | 682 hPa | - | - | - | - |
| 1788274693 | 24.44° C | 47% | 683 hPa | - | - | - | - |
| 1788273482 | 23.89° C | 48% | 682 hPa | - | - | - | - |
| 1788271059 | 25.56° C | 46% | 684 hPa | - | - | - | - |
| 1788270454 | 25.56° C | 47% | 684 hPa | - | - | - | - |
| 1788269243 | 24.44° C | 48% | 683 hPa | - | - | - | - |
| 1788268637 | 25° C | 49% | 684 hPa | - | - | - | - |
| 1788268031 | 25° C | 49% | 683 hPa | - | - | - | - |
| 1788266820 | 24.44° C | 48% | 683 hPa | - | - | - | - |
| 1788266215 | 24.44° C | 48% | 683 hPa | - | - | - | - |
| 1788265609 | 25° C | 47% | 683 hPa | - | - | - | - |
| 1788265003 | 25° C | 47% | 684 hPa | - | - | - | - |
| 1788264398 | 25.56° C | 42% | 684 hPa | - | - | - | - |
* Rain since midnight (hover to see other rain measurements)
** Current wind speed in m/s (hover to see current wind gust speed)